sensor_id;sensor_type;location;lat;lon;timestamp;pressure;altitude;pressure_sealevel;temperature;humidity
26865;BME280;40618;51.166;10.322;2023-01-28T00:01:57;98275.84;;;-0.43;88.96
26865;BME280;40618;51.166;10.322;2023-01-28T00:04:22;98271.59;;;-0.43;88.29
26865;BME280;40618;51.166;10.322;2023-01-28T00:06:48;98274.19;;;-0.41;88.46
26865;BME280;40618;51.166;10.322;2023-01-28T00:09:14;98275.91;;;-0.40;88.66
26865;BME280;40618;51.166;10.322;2023-01-28T00:11:40;98279.19;;;-0.44;88.70
26865;BME280;40618;51.166;10.322;2023-01-28T00:14:06;98281.75;;;-0.44;89.13
26865;BME280;40618;51.166;10.322;2023-01-28T00:16:32;98274.13;;;-0.44;88.45
26865;BME280;40618;51.166;10.322;2023-01-28T00:18:58;98273.25;;;-0.45;88.35
26865;BME280;40618;51.166;10.322;2023-01-28T00:21:23;98274.97;;;-0.44;88.92
26865;BME280;40618;51.166;10.322;2023-01-28T00:23:52;98271.59;;;-0.43;88.88
26865;BME280;40618;51.166;10.322;2023-01-28T00:26:19;98267.28;;;-0.45;88.36
26865;BME280;40618;51.166;10.322;2023-01-28T00:28:46;98265.53;;;-0.48;88.40
26865;BME280;40618;51.166;10.322;2023-01-28T00:31:18;98261.25;;;-0.50;88.81
26865;BME280;40618;51.166;10.322;2023-01-28T00:33:46;98258.63;;;-0.52;88.29
26865;BME280;40618;51.166;10.322;2023-01-28T00:36:13;98260.31;;;-0.53;88.23
26865;BME280;40618;51.166;10.322;2023-01-28T00:38:39;98255.19;;;-0.54;88.52
26865;BME280;40618;51.166;10.322;2023-01-28T00:41:15;98255.94;;;-0.58;88.51
26865;BME280;40618;51.166;10.322;2023-01-28T00:43:43;98249.19;;;-0.56;88.70
26865;BME280;40618;51.166;10.322;2023-01-28T00:46:10;98250.88;;;-0.57;88.94
26865;BME280;40618;51.166;10.322;2023-01-28T00:48:37;98249.25;;;-0.55;88.48
26865;BME280;40618;51.166;10.322;2023-01-28T00:51:04;98248.41;;;-0.54;88.54
26865;BME280;40618;51.166;10.322;2023-01-28T00:53:31;98249.31;;;-0.53;88.53
26865;BME280;40618;51.166;10.322;2023-01-28T00:56:00;98256.94;;;-0.53;88.59
26865;BME280;40618;51.166;10.322;2023-01-28T00:58:26;98251.00;;;-0.52;89.04
26865;BME280;40618;51.166;10.322;2023-01-28T01:00:51;98250.94;;;-0.55;88.44
26865;BME280;40618;51.166;10.322;2023-01-28T01:03:18;98246.47;;;-0.64;88.55
26865;BME280;40618;51.166;10.322;2023-01-28T01:05:44;98252.31;;;-0.66;88.42
26865;BME280;40618;51.166;10.322;2023-01-28T01:08:10;98253.09;;;-0.69;88.66
26865;BME280;40618;51.166;10.322;2023-01-28T01:10:37;98247.09;;;-0.71;88.54
26865;BME280;40618;51.166;10.322;2023-01-28T01:13:07;98257.28;;;-0.71;88.20
26865;BME280;40618;51.166;10.322;2023-01-28T01:15:33;98248.78;;;-0.72;88.12
26865;BME280;40618;51.166;10.322;2023-01-28T01:17:59;98258.06;;;-0.74;88.61
26865;BME280;40618;51.166;10.322;2023-01-28T01:20:27;98256.28;;;-0.78;88.16
26865;BME280;40618;51.166;10.322;2023-01-28T01:22:57;98251.19;;;-0.78;88.36
26865;BME280;40618;51.166;10.322;2023-01-28T01:25:23;98258.84;;;-0.76;88.20
26865;BME280;40618;51.166;10.322;2023-01-28T01:27:49;98257.97;;;-0.77;88.16
26865;BME280;40618;51.166;10.322;2023-01-28T01:30:15;98259.72;;;-0.74;87.91
26865;BME280;40618;51.166;10.322;2023-01-28T01:32:41;98258.88;;;-0.75;88.48
26865;BME280;40618;51.166;10.322;2023-01-28T01:35:08;98261.38;;;-0.76;88.39
26865;BME280;40618;51.166;10.322;2023-01-28T01:37:35;98262.28;;;-0.74;88.06
26865;BME280;40618;51.166;10.322;2023-01-28T01:40:02;98272.59;;;-0.70;88.27
26865;BME280;40618;51.166;10.322;2023-01-28T01:42:31;98264.13;;;-0.69;88.26
26865;BME280;40618;51.166;10.322;2023-01-28T01:45:05;98265.81;;;-0.69;88.38
26865;BME280;40618;51.166;10.322;2023-01-28T01:47:51;98277.69;;;-0.70;88.20
26865;BME280;40618;51.166;10.322;2023-01-28T01:50:35;98267.41;;;-0.73;88.26
26865;BME280;40618;51.166;10.322;2023-01-28T01:53:10;98271.59;;;-0.75;88.42
26865;BME280;40618;51.166;10.322;2023-01-28T01:55:42;98274.19;;;-0.73;87.91
26865;BME280;40618;51.166;10.322;2023-01-28T01:58:14;98278.34;;;-0.75;87.90
26865;BME280;40618;51.166;10.322;2023-01-28T02:00:42;98276.66;;;-0.76;88.29
26865;BME280;40618;51.166;10.322;2023-01-28T02:03:09;98270.69;;;-0.77;87.95
26865;BME280;40618;51.166;10.322;2023-01-28T02:05:36;98274.88;;;-0.79;88.06
26865;BME280;40618;51.166;10.322;2023-01-28T02:08:03;98277.34;;;-0.82;88.26
26865;BME280;40618;51.166;10.322;2023-01-28T02:10:54;98279.88;;;-0.82;88.15
26865;BME280;40618;51.166;10.322;2023-01-28T02:13:27;98282.34;;;-0.83;88.05
26865;BME280;40618;51.166;10.322;2023-01-28T02:15:59;98289.91;;;-0.87;87.96
26865;BME280;40618;51.166;10.322;2023-01-28T02:18:25;98284.88;;;-0.85;88.07
26865;BME280;40618;51.166;10.322;2023-01-28T02:30:20;98294.91;;;-0.90;87.83
26865;BME280;40618;51.166;10.322;2023-01-28T02:32:58;98298.31;;;-0.89;87.93
26865;BME280;40618;51.166;10.322;2023-01-28T02:35:41;98311.03;;;-0.89;88.10
26865;BME280;40618;51.166;10.322;2023-01-28T02:38:15;98306.81;;;-0.89;87.45
26865;BME280;40618;51.166;10.322;2023-01-28T02:40:49;98306.78;;;-0.90;87.75
26865;BME280;40618;51.166;10.322;2023-01-28T02:43:49;98311.88;;;-0.90;87.77
26865;BME280;40618;51.166;10.322;2023-01-28T02:46:33;98310.94;;;-0.92;87.92
26865;BME280;40618;51.166;10.322;2023-01-28T02:49:42;98320.22;;;-0.94;87.80
26865;BME280;40618;51.166;10.322;2023-01-28T02:55:42;98330.28;;;-0.97;87.95
26865;BME280;40618;51.166;10.322;2023-01-28T03:01:32;98326.78;;;-1.01;87.54
26865;BME280;40618;51.166;10.322;2023-01-28T03:07:06;98333.47;;;-1.05;87.53
26865;BME280;40618;51.166;10.322;2023-01-28T03:09:38;98339.38;;;-1.04;87.40
26865;BME280;40618;51.166;10.322;2023-01-28T03:12:10;98346.16;;;-1.05;87.63
26865;BME280;40618;51.166;10.322;2023-01-28T03:15:05;98336.75;;;-1.07;87.38
26865;BME280;40618;51.166;10.322;2023-01-28T03:18:12;98340.06;;;-1.10;87.28
26865;BME280;40618;51.166;10.322;2023-01-28T03:21:17;98340.84;;;-1.12;87.63
26865;BME280;40618;51.166;10.322;2023-01-28T03:24:08;98336.63;;;-1.12;87.56
26865;BME280;40618;51.166;10.322;2023-01-28T03:27:05;98337.50;;;-1.11;87.16
26865;BME280;40618;51.166;10.322;2023-01-28T03:29:56;98343.38;;;-1.12;87.33
26865;BME280;40618;51.166;10.322;2023-01-28T03:32:43;98328.13;;;-1.12;87.23
26865;BME280;40618;51.166;10.322;2023-01-28T03:35:32;98338.41;;;-1.09;87.35
26865;BME280;40618;51.166;10.322;2023-01-28T03:38:19;98342.66;;;-1.08;87.43
26865;BME280;40618;51.166;10.322;2023-01-28T03:40:54;98341.00;;;-1.08;87.19
26865;BME280;40618;51.166;10.322;2023-01-28T03:43:22;98334.94;;;-1.11;87.33
26865;BME280;40618;51.166;10.322;2023-01-28T03:45:48;98338.34;;;-1.11;87.52
26865;BME280;40618;51.166;10.322;2023-01-28T03:48:18;98340.84;;;-1.12;87.29
26865;BME280;40618;51.166;10.322;2023-01-28T03:50:45;98341.72;;;-1.12;87.44
26865;BME280;40618;51.166;10.322;2023-01-28T03:53:12;98349.38;;;-1.10;87.33
26865;BME280;40618;51.166;10.322;2023-01-28T03:55:40;98340.88;;;-1.11;87.33
26865;BME280;40618;51.166;10.322;2023-01-28T03:58:07;98340.78;;;-1.14;87.18
26865;BME280;40618;51.166;10.322;2023-01-28T04:00:34;98340.78;;;-1.14;87.01
26865;BME280;40618;51.166;10.322;2023-01-28T04:03:10;98337.41;;;-1.14;87.28
26865;BME280;40618;51.166;10.322;2023-01-28T04:05:43;98339.94;;;-1.14;87.12
26865;BME280;40618;51.166;10.322;2023-01-28T04:08:23;98338.31;;;-1.12;86.97
26865;BME280;40618;51.166;10.322;2023-01-28T04:10:49;98336.53;;;-1.15;87.35
26865;BME280;40618;51.166;10.322;2023-01-28T04:13:15;98335.59;;;-1.18;86.84
26865;BME280;40618;51.166;10.322;2023-01-28T04:15:42;98340.66;;;-1.18;87.16
26865;BME280;40618;51.166;10.322;2023-01-28T04:18:08;98338.16;;;-1.17;87.19
26865;BME280;40618;51.166;10.322;2023-01-28T04:20:34;98337.31;;;-1.17;87.43
26865;BME280;40618;51.166;10.322;2023-01-28T04:23:00;98342.41;;;-1.17;87.33
26865;BME280;40618;51.166;10.322;2023-01-28T04:25:26;98344.94;;;-1.17;87.49
26865;BME280;40618;51.166;10.322;2023-01-28T04:27:52;98350.78;;;-1.20;87.10
26865;BME280;40618;51.166;10.322;2023-01-28T04:30:18;98350.78;;;-1.20;87.04
26865;BME280;40618;51.166;10.322;2023-01-28T04:32:46;98355.03;;;-1.19;87.18
26865;BME280;40618;51.166;10.322;2023-01-28T04:35:14;98349.94;;;-1.19;87.14
26865;BME280;40618;51.166;10.322;2023-01-28T04:37:41;98353.41;;;-1.17;87.14
26865;BME280;40618;51.166;10.322;2023-01-28T04:40:08;98354.22;;;-1.18;86.93
26865;BME280;40618;51.166;10.322;2023-01-28T04:42:34;98360.22;;;-1.16;87.26
26865;BME280;40618;51.166;10.322;2023-01-28T04:45:00;98357.69;;;-1.16;87.11
26865;BME280;40618;51.166;10.322;2023-01-28T04:47:26;98362.78;;;-1.16;87.11
26865;BME280;40618;51.166;10.322;2023-01-28T04:49:51;98355.16;;;-1.16;87.11
26865;BME280;40618;51.166;10.322;2023-01-28T04:52:17;98355.97;;;-1.17;87.06
26865;BME280;40618;51.166;10.322;2023-01-28T04:54:42;98350.88;;;-1.17;86.83
26865;BME280;40618;51.166;10.322;2023-01-28T04:57:08;98353.47;;;-1.15;86.94
26865;BME280;40618;51.166;10.322;2023-01-28T04:59:34;98350.13;;;-1.14;86.92
26865;BME280;40618;51.166;10.322;2023-01-28T05:01:59;98360.31;;;-1.13;87.09
26865;BME280;40618;51.166;10.322;2023-01-28T05:04:25;98358.59;;;-1.14;87.11
26865;BME280;40618;51.166;10.322;2023-01-28T05:06:51;98361.19;;;-1.12;86.73
26865;BME280;40618;51.166;10.322;2023-01-28T05:09:16;98366.25;;;-1.12;86.85
26865;BME280;40618;51.166;10.322;2023-01-28T05:11:42;98365.44;;;-1.11;87.20
26865;BME280;40618;51.166;10.322;2023-01-28T05:14:07;98363.66;;;-1.14;86.84
26865;BME280;40618;51.166;10.322;2023-01-28T05:16:33;98361.00;;;-1.18;86.89
26865;BME280;40618;51.166;10.322;2023-01-28T05:19:00;98366.09;;;-1.18;86.62
26865;BME280;40618;51.166;10.322;2023-01-28T05:21:26;98370.28;;;-1.19;87.11
26865;BME280;40618;51.166;10.322;2023-01-28T05:23:52;98366.13;;;-1.17;87.01
26865;BME280;40618;51.166;10.322;2023-01-28T05:26:19;98373.75;;;-1.17;86.69
26865;BME280;40618;51.166;10.322;2023-01-28T05:28:44;98363.59;;;-1.17;86.80
26865;BME280;40618;51.166;10.322;2023-01-28T05:31:10;98371.16;;;-1.18;86.67
26865;BME280;40618;51.166;10.322;2023-01-28T05:33:36;98372.78;;;-1.21;86.79
26865;BME280;40618;51.166;10.322;2023-01-28T05:36:02;98377.66;;;-1.28;86.50
26865;BME280;40618;51.166;10.322;2023-01-28T05:38:28;98375.81;;;-1.32;86.27
26865;BME280;40618;51.166;10.322;2023-01-28T05:40:54;98375.88;;;-1.31;86.54
26865;BME280;40618;51.166;10.322;2023-01-28T05:43:20;98374.88;;;-1.34;86.35
26865;BME280;40618;51.166;10.322;2023-01-28T05:45:46;98380.72;;;-1.37;86.84
26865;BME280;40618;51.166;10.322;2023-01-28T05:48:12;98374.88;;;-1.34;86.44
26865;BME280;40618;51.166;10.322;2023-01-28T05:50:37;98374.97;;;-1.31;86.57
26865;BME280;40618;51.166;10.322;2023-01-28T05:53:06;98376.72;;;-1.30;86.70
26865;BME280;40618;51.166;10.322;2023-01-28T05:55:33;98378.50;;;-1.28;86.46
26865;BME280;40618;51.166;10.322;2023-01-28T05:57:58;98375.09;;;-1.28;86.49
26865;BME280;40618;51.166;10.322;2023-01-28T06:00:24;98380.19;;;-1.28;86.41
26865;BME280;40618;51.166;10.322;2023-01-28T06:02:50;98380.19;;;-1.28;86.68
26865;BME280;40618;51.166;10.322;2023-01-28T06:05:16;98384.34;;;-1.30;86.36
26865;BME280;40618;51.166;10.322;2023-01-28T06:07:46;98388.56;;;-1.31;86.51
26865;BME280;40618;51.166;10.322;2023-01-28T06:10:12;98392.06;;;-1.27;86.17
26865;BME280;40618;51.166;10.322;2023-01-28T06:12:39;98391.19;;;-1.28;86.61
26865;BME280;40618;51.166;10.322;2023-01-28T06:15:05;98390.38;;;-1.27;86.46
26865;BME280;40618;51.166;10.322;2023-01-28T06:17:31;98387.91;;;-1.25;86.24
26865;BME280;40618;51.166;10.322;2023-01-28T06:19:56;98402.34;;;-1.24;86.43
26865;BME280;40618;51.166;10.322;2023-01-28T06:22:22;98396.38;;;-1.25;86.43
26865;BME280;40618;51.166;10.322;2023-01-28T06:24:48;98404.00;;;-1.25;86.39
26865;BME280;40618;51.166;10.322;2023-01-28T06:27:13;98404.75;;;-1.27;86.18
26865;BME280;40618;51.166;10.322;2023-01-28T06:29:39;98408.94;;;-1.29;86.35
26865;BME280;40618;51.166;10.322;2023-01-28T06:32:05;98414.84;;;-1.30;86.18
26865;BME280;40618;51.166;10.322;2023-01-28T06:34:31;98403.84;;;-1.29;86.55
26865;BME280;40618;51.166;10.322;2023-01-28T06:36:57;98396.31;;;-1.26;86.65
26865;BME280;40618;51.166;10.322;2023-01-28T06:39:22;98408.22;;;-1.25;86.30
26865;BME280;40618;51.166;10.322;2023-01-28T06:41:49;98408.22;;;-1.25;86.40
26865;BME280;40618;51.166;10.322;2023-01-28T06:44:15;98409.13;;;-1.23;86.34
26865;BME280;40618;51.166;10.322;2023-01-28T06:46:41;98417.63;;;-1.23;86.47
26865;BME280;40618;51.166;10.322;2023-01-28T06:49:07;98420.13;;;-1.24;86.34
26865;BME280;40618;51.166;10.322;2023-01-28T06:51:33;98428.50;;;-1.27;86.39
26865;BME280;40618;51.166;10.322;2023-01-28T06:53:58;98436.19;;;-1.25;86.28
26865;BME280;40618;51.166;10.322;2023-01-28T06:56:24;98431.16;;;-1.24;86.32
26865;BME280;40618;51.166;10.322;2023-01-28T06:58:50;98425.22;;;-1.24;86.11
26865;BME280;40618;51.166;10.322;2023-01-28T07:01:16;98431.19;;;-1.22;86.02
26865;BME280;40618;51.166;10.322;2023-01-28T07:03:42;98431.94;;;-1.25;86.28
26865;BME280;40618;51.166;10.322;2023-01-28T07:06:07;98424.22;;;-1.28;86.01
26865;BME280;40618;51.166;10.322;2023-01-28T07:08:33;98435.97;;;-1.31;86.02
26865;BME280;40618;51.166;10.322;2023-01-28T07:10:59;98446.88;;;-1.34;85.77
26865;BME280;40618;51.166;10.322;2023-01-28T07:13:25;98438.41;;;-1.34;85.94
26865;BME280;40618;51.166;10.322;2023-01-28T07:15:51;98439.22;;;-1.36;85.95
26865;BME280;40618;51.166;10.322;2023-01-28T07:18:16;98436.69;;;-1.36;85.98
26865;BME280;40618;51.166;10.322;2023-01-28T07:20:42;98441.75;;;-1.36;85.68
26865;BME280;40618;51.166;10.322;2023-01-28T07:23:08;98444.44;;;-1.32;86.05
26865;BME280;40618;51.166;10.322;2023-01-28T07:25:33;98438.59;;;-1.30;85.72
26865;BME280;40618;51.166;10.322;2023-01-28T07:28:00;98438.59;;;-1.30;86.25
26865;BME280;40618;51.166;10.322;2023-01-28T07:30:26;98434.34;;;-1.29;86.17
26865;BME280;40618;51.166;10.322;2023-01-28T07:32:55;98441.03;;;-1.31;85.92
26865;BME280;40618;51.166;10.322;2023-01-28T07:35:23;98445.28;;;-1.32;85.81
26865;BME280;40618;51.166;10.322;2023-01-28T07:37:57;98447.81;;;-1.32;85.81
26865;BME280;40618;51.166;10.322;2023-01-28T07:40:25;98445.31;;;-1.30;86.14
26865;BME280;40618;51.166;10.322;2023-01-28T07:42:51;98449.59;;;-1.29;85.80
26865;BME280;40618;51.166;10.322;2023-01-28T07:45:19;98447.91;;;-1.29;85.90
26865;BME280;40618;51.166;10.322;2023-01-28T07:47:55;98451.34;;;-1.28;86.01
26865;BME280;40618;51.166;10.322;2023-01-28T07:50:26;98445.41;;;-1.27;85.88
26865;BME280;40618;51.166;10.322;2023-01-28T07:52:54;98440.25;;;-1.30;85.80
26865;BME280;40618;51.166;10.322;2023-01-28T07:55:21;98443.50;;;-1.34;85.44
26865;BME280;40618;51.166;10.322;2023-01-28T07:57:51;98443.44;;;-1.36;85.40
26865;BME280;40618;51.166;10.322;2023-01-28T08:00:19;98437.50;;;-1.37;85.77
26865;BME280;40618;51.166;10.322;2023-01-28T08:02:49;98447.59;;;-1.38;85.42
26865;BME280;40618;51.166;10.322;2023-01-28T08:05:20;98447.59;;;-1.38;85.62
26865;BME280;40618;51.166;10.322;2023-01-28T08:07:46;98447.69;;;-1.37;85.68
26865;BME280;40618;51.166;10.322;2023-01-28T08:10:14;98450.31;;;-1.33;85.55
26865;BME280;40618;51.166;10.322;2023-01-28T08:12:58;98447.78;;;-1.33;85.50
26865;BME280;40618;51.166;10.322;2023-01-28T08:15:24;98451.13;;;-1.34;85.55
26865;BME280;40618;51.166;10.322;2023-01-28T08:17:53;98447.81;;;-1.32;85.80
26865;BME280;40618;51.166;10.322;2023-01-28T08:20:20;98447.88;;;-1.30;85.60
26865;BME280;40618;51.166;10.322;2023-01-28T08:22:46;98449.59;;;-1.29;85.38
26865;BME280;40618;51.166;10.322;2023-01-28T08:25:11;98454.69;;;-1.29;85.69
26865;BME280;40618;51.166;10.322;2023-01-28T08:27:38;98449.59;;;-1.29;85.50
26865;BME280;40618;51.166;10.322;2023-01-28T08:30:04;98451.22;;;-1.31;85.46
26865;BME280;40618;51.166;10.322;2023-01-28T08:32:31;98446.22;;;-1.30;85.29
26865;BME280;40618;51.166;10.322;2023-01-28T08:34:57;98455.53;;;-1.29;85.50
26865;BME280;40618;51.166;10.322;2023-01-28T08:37:22;98459.81;;;-1.28;85.49
26865;BME280;40618;51.166;10.322;2023-01-28T08:39:48;98456.41;;;-1.28;85.87
26865;BME280;40618;51.166;10.322;2023-01-28T08:42:14;98459.00;;;-1.27;85.34
26865;BME280;40618;51.166;10.322;2023-01-28T08:44:40;98460.75;;;-1.26;85.54
26865;BME280;40618;51.166;10.322;2023-01-28T08:47:06;98464.22;;;-1.22;85.48
26865;BME280;40618;51.166;10.322;2023-01-28T08:49:31;98472.59;;;-1.25;85.47
26865;BME280;40618;51.166;10.322;2023-01-28T08:51:57;98473.50;;;-1.24;85.35
26865;BME280;40618;51.166;10.322;2023-01-28T08:54:23;98484.50;;;-1.24;85.35
26865;BME280;40618;51.166;10.322;2023-01-28T08:56:48;98475.31;;;-1.20;85.32
26865;BME280;40618;51.166;10.322;2023-01-28T08:59:15;98483.84;;;-1.18;85.25
26865;BME280;40618;51.166;10.322;2023-01-28T09:01:42;98482.19;;;-1.17;85.17
26865;BME280;40618;51.166;10.322;2023-01-28T09:04:07;98487.16;;;-1.21;85.30
26865;BME280;40618;51.166;10.322;2023-01-28T09:06:33;98490.44;;;-1.23;85.19
26865;BME280;40618;51.166;10.322;2023-01-28T09:08:59;98489.69;;;-1.21;85.38
26865;BME280;40618;51.166;10.322;2023-01-28T09:11:26;98485.50;;;-1.20;85.27
26865;BME280;40618;51.166;10.322;2023-01-28T09:13:52;98482.22;;;-1.16;85.30
26865;BME280;40618;51.166;10.322;2023-01-28T09:16:19;98491.69;;;-1.12;85.17
26865;BME280;40618;51.166;10.322;2023-01-28T09:18:44;98483.09;;;-1.15;85.16
26865;BME280;40618;51.166;10.322;2023-01-28T09:21:12;98487.31;;;-1.16;85.14
26865;BME280;40618;51.166;10.322;2023-01-28T09:23:38;98490.66;;;-1.17;84.92
26865;BME280;40618;51.166;10.322;2023-01-28T09:26:04;98497.44;;;-1.17;85.06
26865;BME280;40618;51.166;10.322;2023-01-28T09:28:31;98488.22;;;-1.14;85.16
26865;BME280;40618;51.166;10.322;2023-01-28T09:31:06;98493.34;;;-1.12;85.15
26865;BME280;40618;51.166;10.322;2023-01-28T09:33:34;98498.34;;;-1.15;85.07
26865;BME280;40618;51.166;10.322;2023-01-28T09:36:03;98500.81;;;-1.17;85.24
26865;BME280;40618;51.166;10.322;2023-01-28T09:38:30;98504.28;;;-1.15;85.06
26865;BME280;40618;51.166;10.322;2023-01-28T09:40:57;98500.88;;;-1.15;84.72
26865;BME280;40618;51.166;10.322;2023-01-28T09:46:07;98505.91;;;-1.17;84.90
26865;BME280;40618;51.166;10.322;2023-01-28T09:48:40;98512.59;;;-1.19;84.91
26865;BME280;40618;51.166;10.322;2023-01-28T09:51:12;98519.44;;;-1.18;84.76
26865;BME280;40618;51.166;10.322;2023-01-28T09:53:54;98522.06;;;-1.15;84.81
26865;BME280;40618;51.166;10.322;2023-01-28T09:56:31;98526.38;;;-1.12;84.79
26865;BME280;40618;51.166;10.322;2023-01-28T10:01:58;98536.41;;;-1.17;84.73
26865;BME280;40618;51.166;10.322;2023-01-28T10:10:32;98539.22;;;-1.09;84.99
26865;BME280;40618;51.166;10.322;2023-01-28T10:13:23;98542.66;;;-1.07;84.82
26865;BME280;40618;51.166;10.322;2023-01-28T10:21:28;98524.13;;;-1.05;84.95
26865;BME280;40618;51.166;10.322;2023-01-28T10:24:10;98529.25;;;-1.03;84.67
26865;BME280;40618;51.166;10.322;2023-01-28T10:26:44;98522.38;;;-1.06;84.44
26865;BME280;40618;51.166;10.322;2023-01-28T10:29:19;98507.06;;;-1.07;84.57
26865;BME280;40618;51.166;10.322;2023-01-28T10:32:01;98518.81;;;-1.11;84.56
26865;BME280;40618;51.166;10.322;2023-01-28T10:34:48;98520.50;;;-1.11;84.38
26865;BME280;40618;51.166;10.322;2023-01-28T10:37:15;98523.91;;;-1.11;84.32
26865;BME280;40618;51.166;10.322;2023-01-28T10:39:42;98529.69;;;-1.15;84.11
26865;BME280;40618;51.166;10.322;2023-01-28T10:42:36;98527.00;;;-1.20;84.02
26865;BME280;40618;51.166;10.322;2023-01-28T10:48:23;98528.69;;;-1.20;84.17
26865;BME280;40618;51.166;10.322;2023-01-28T10:50:55;98517.63;;;-1.21;83.90
26865;BME280;40618;51.166;10.322;2023-01-28T10:53:43;98533.59;;;-1.25;84.14
26865;BME280;40618;51.166;10.322;2023-01-28T10:56:14;98535.19;;;-1.28;84.03
26865;BME280;40618;51.166;10.322;2023-01-28T10:58:56;98541.88;;;-1.30;83.86
26865;BME280;40618;51.166;10.322;2023-01-28T11:01:37;98530.09;;;-1.28;84.09
26865;BME280;40618;51.166;10.322;2023-01-28T11:04:03;98527.63;;;-1.27;84.16
26865;BME280;40618;51.166;10.322;2023-01-28T11:06:29;98514.97;;;-1.25;83.97
26865;BME280;40618;51.166;10.322;2023-01-28T11:08:55;98521.91;;;-1.20;83.92
26865;BME280;40618;51.166;10.322;2023-01-28T11:11:24;98515.28;;;-1.16;83.94
26865;BME280;40618;51.166;10.322;2023-01-28T11:13:51;98522.06;;;-1.15;83.73
26865;BME280;40618;51.166;10.322;2023-01-28T11:16:20;98527.97;;;-1.16;83.75
26865;BME280;40618;51.166;10.322;2023-01-28T11:19:09;98515.28;;;-1.16;83.84
26865;BME280;40618;51.166;10.322;2023-01-28T11:21:36;98516.97;;;-1.15;83.70
26865;BME280;40618;51.166;10.322;2023-01-28T11:24:05;98515.28;;;-1.16;83.55
26865;BME280;40618;51.166;10.322;2023-01-28T11:26:43;98516.88;;;-1.18;83.58
26865;BME280;40618;51.166;10.322;2023-01-28T11:29:22;98525.31;;;-1.19;83.62
26865;BME280;40618;51.166;10.322;2023-01-28T11:31:58;98522.78;;;-1.19;83.17
26865;BME280;40618;51.166;10.322;2023-01-28T11:34:27;98520.22;;;-1.19;83.58
26865;BME280;40618;51.166;10.322;2023-01-28T11:37:09;98526.09;;;-1.22;83.38
26865;BME280;40618;51.166;10.322;2023-01-28T11:39:40;98520.13;;;-1.22;83.41
26865;BME280;40618;51.166;10.322;2023-01-28T11:42:20;98517.44;;;-1.27;83.37
26865;BME280;40618;51.166;10.322;2023-01-28T11:44:47;98518.25;;;-1.28;83.28
26865;BME280;40618;51.166;10.322;2023-01-28T12:08:25;98503.78;;;-1.05;83.21
26865;BME280;40618;51.166;10.322;2023-01-28T12:14:09;98496.06;;;-1.08;83.26
26865;BME280;40618;51.166;10.322;2023-01-28T12:25:21;98478.31;;;-1.06;82.83
26865;BME280;40618;51.166;10.322;2023-01-28T12:30:54;98493.06;;;-1.22;82.85
26865;BME280;40618;51.166;10.322;2023-01-28T12:39:56;98491.72;;;-1.10;82.90
26865;BME280;40618;51.166;10.322;2023-01-28T12:42:44;98491.88;;;-1.06;83.24
26865;BME280;40618;51.166;10.322;2023-01-28T12:45:19;98506.31;;;-1.05;82.63
26865;BME280;40618;51.166;10.322;2023-01-28T12:48:01;98491.06;;;-1.05;82.72
26865;BME280;40618;51.166;10.322;2023-01-28T12:50:39;98496.91;;;-1.07;82.56
26865;BME280;40618;51.166;10.322;2023-01-28T12:53:41;98501.09;;;-1.09;82.60
26865;BME280;40618;51.166;10.322;2023-01-28T12:56:19;98500.06;;;-1.14;82.56
26865;BME280;40618;51.166;10.322;2023-01-28T12:59:01;98495.03;;;-1.13;82.52
26865;BME280;40618;51.166;10.322;2023-01-28T13:01:54;98493.38;;;-1.11;82.70
26865;BME280;40618;51.166;10.322;2023-01-28T13:04:40;98496.06;;;-1.08;82.73
26865;BME280;40618;51.166;10.322;2023-01-28T13:07:13;98494.47;;;-1.04;82.59
26865;BME280;40618;51.166;10.322;2023-01-28T13:10:05;98494.50;;;-1.03;82.56
26865;BME280;40618;51.166;10.322;2023-01-28T13:12:43;98480.13;;;-1.02;82.52
26865;BME280;40618;51.166;10.322;2023-01-28T13:15:12;98486.06;;;-1.02;82.68
26865;BME280;40618;51.166;10.322;2023-01-28T13:17:56;98490.94;;;-1.09;82.19
26865;BME280;40618;51.166;10.322;2023-01-28T13:20:38;98494.31;;;-1.09;82.51
26865;BME280;40618;51.166;10.322;2023-01-28T13:23:24;98500.38;;;-1.05;82.04
26865;BME280;40618;51.166;10.322;2023-01-28T13:26:27;98495.34;;;-1.04;82.29
26865;BME280;40618;51.166;10.322;2023-01-28T13:29:20;98496.06;;;-1.08;82.25
26865;BME280;40618;51.166;10.322;2023-01-28T13:31:51;98499.91;;;-1.19;82.25
26865;BME280;40618;51.166;10.322;2023-01-28T13:34:29;98488.75;;;-1.24;82.29
26865;BME280;40618;51.166;10.322;2023-01-28T13:39:45;98476.03;;;-1.24;82.28
26865;BME280;40618;51.166;10.322;2023-01-28T13:42:26;98491.38;;;-1.21;82.23
26865;BME280;40618;51.166;10.322;2023-01-28T13:45:17;98488.13;;;-1.17;82.25
26865;BME280;40618;51.166;10.322;2023-01-28T13:47:51;98490.75;;;-1.14;82.28
26865;BME280;40618;51.166;10.322;2023-01-28T13:50:23;98488.38;;;-1.09;82.56
26865;BME280;40618;51.166;10.322;2023-01-28T13:53:06;98492.63;;;-1.08;82.33
26865;BME280;40618;51.166;10.322;2023-01-28T13:55:45;98491.72;;;-1.10;82.21
26865;BME280;40618;51.166;10.322;2023-01-28T14:01:37;98496.66;;;-1.15;81.85
26865;BME280;40618;51.166;10.322;2023-01-28T14:09:51;98480.69;;;-1.11;82.07
26865;BME280;40618;51.166;10.322;2023-01-28T14:18:26;98479.03;;;-1.10;82.23
26865;BME280;40618;51.166;10.322;2023-01-28T14:20:59;98482.41;;;-1.10;81.97
26865;BME280;40618;51.166;10.322;2023-01-28T14:23:28;98478.03;;;-1.14;82.00
26865;BME280;40618;51.166;10.322;2023-01-28T14:26:17;98482.28;;;-1.14;82.12
26865;BME280;40618;51.166;10.322;2023-01-28T14:32:14;98470.69;;;-1.32;81.84
26865;BME280;40618;51.166;10.322;2023-01-28T14:34:44;98468.91;;;-1.34;81.94
26865;BME280;40618;51.166;10.322;2023-01-28T14:37:13;98464.00;;;-1.30;82.14
26865;BME280;40618;51.166;10.322;2023-01-28T14:40:02;98464.97;;;-1.25;81.74
26865;BME280;40618;51.166;10.322;2023-01-28T14:42:44;98455.78;;;-1.21;82.17
26865;BME280;40618;51.166;10.322;2023-01-28T14:59:03;98429.66;;;-1.17;81.67
26865;BME280;40618;51.166;10.322;2023-01-28T15:01:45;98428.03;;;-1.15;82.47
26865;BME280;40618;51.166;10.322;2023-01-28T15:04:32;98447.63;;;-1.11;82.25
26865;BME280;40618;51.166;10.322;2023-01-28T15:07:20;98453.56;;;-1.12;82.00
26865;BME280;40618;51.166;10.322;2023-01-28T15:10:04;98460.97;;;-1.18;82.14